Time;durP1;ratioP1;P1;durP2;ratioP2;P2;SDS_P1;SDS_P2;PMS_P1;PMS_P2;Temp;Humidity;BMP_temperature;BMP_pressure;BME280_temperature;BME280_humidity;BME280_pressure;Samples;Min_cycle;Max_cycle;Signal;HPM_P1;HPM_P2
2023/12/07 00:00:27;;;;;;;40.67;22.63;;;;;;;-1.70;100.00;101702.22;6305581;22;20442;-79
2023/12/07 00:02:53;;;;;;;32.15;19.77;;;;;;;-1.73;100.00;101699.00;6305762;22;20074;-79
2023/12/07 00:05:18;;;;;;;27.27;17.77;;;;;;;-1.79;100.00;101692.41;6278165;22;20011;-79
2023/12/07 00:07:43;;;;;;;28.15;17.65;;;;;;;-1.74;100.00;101707.78;6305173;22;19999;-80
2023/12/07 00:10:09;;;;;;;28.08;18.30;;;;;;;-1.82;100.00;101703.09;6277161;22;20003;-79
2023/12/07 00:12:34;;;;;;;39.75;19.88;;;;;;;-1.82;100.00;101697.88;6277772;22;20007;-78
2023/12/07 00:14:59;;;;;;;34.60;17.98;;;;;;;-1.84;100.00;101684.03;6278057;22;20093;-78
2023/12/07 00:17:25;;;;;;;32.70;17.40;;;;;;;-1.81;100.00;101688.22;6305101;22;20029;-79
2023/12/07 00:19:53;;;;;;;30.65;17.13;;;;;;;-1.81;100.00;101688.22;6304905;22;20079;-81
2023/12/07 00:22:19;;;;;;;27.60;17.42;;;;;;;-1.97;100.00;101670.19;6277528;22;20007;-81
2023/12/07 00:24:44;;;;;;;27.77;17.50;;;;;;;-2.06;100.00;101660.34;6305313;22;20070;-80
2023/12/07 00:27:10;;;;;;;32.53;18.02;;;;;;;-1.90;100.00;101692.38;6304598;22;20011;-80
2023/12/07 00:29:37;;;;;;;27.15;16.30;;;;;;;-2.01;100.00;101684.47;6277759;22;20420;-80
2023/12/07 00:32:03;;;;;;;27.58;17.40;;;;;;;-2.02;100.00;101685.41;6305193;22;19999;-81
2023/12/07 00:34:28;;;;;;;27.40;17.52;;;;;;;-2.06;100.00;101690.00;6276914;22;20068;-81
2023/12/07 00:36:53;;;;;;;32.90;18.40;;;;;;;-1.87;100.00;101682.50;6304807;22;20003;-81
2023/12/07 00:39:19;;;;;;;31.15;17.70;;;;;;;-1.69;100.00;101692.56;6277512;22;20030;-81
2023/12/07 00:41:46;;;;;;;31.52;17.90;;;;;;;-1.71;100.00;101697.94;6303190;22;20030;-80
2023/12/07 00:44:12;;;;;;;36.38;18.20;;;;;;;-1.74;100.00;101687.66;6304802;22;20008;-80
2023/12/07 00:46:37;;;;;;;29.10;17.52;;;;;;;-1.75;100.00;101699.09;6304883;22;20068;-81
2023/12/07 00:49:02;;;;;;;30.33;16.77;;;;;;;-1.81;100.00;101690.84;6305008;22;20027;-81
2023/12/07 00:51:28;;;;;;;40.58;18.92;;;;;;;-1.88;100.00;101687.84;6277282;22;20061;-81
2023/12/07 00:53:53;;;;;;;32.42;18.13;;;;;;;-1.93;100.00;101692.59;6304841;22;20011;-80
2023/12/07 00:56:18;;;;;;;31.60;19.73;;;;;;;-2.06;100.00;101670.84;6277334;22;20007;-80
2023/12/07 00:58:44;;;;;;;31.48;18.40;;;;;;;-1.96;100.00;101695.44;6277421;22;20073;-81
2023/12/07 01:01:09;;;;;;;32.00;18.92;;;;;;;-1.99;100.00;101687.81;6277334;22;20428;-81
2023/12/07 01:03:34;;;;;;;30.75;18.15;;;;;;;-2.04;100.00;101682.88;6304583;22;20015;-81
2023/12/07 01:06:00;;;;;;;32.70;18.15;;;;;;;-2.04;100.00;101690.72;6304639;22;20064;-81
2023/12/07 01:08:25;;;;;;;31.67;17.88;;;;;;;-2.09;100.00;101686.78;6304626;22;20078;-81
2023/12/07 01:10:50;;;;;;;32.33;18.17;;;;;;;-2.15;100.00;101692.47;6304838;22;20103;-81
2023/12/07 01:13:16;;;;;;;30.73;18.00;;;;;;;-2.25;100.00;101698.38;6278198;22;20098;-80
2023/12/07 01:15:41;;;;;;;31.05;17.90;;;;;;;-2.18;100.00;101711.88;6278452;22;20347;-80
2023/12/07 01:18:06;;;;;;;31.85;17.27;;;;;;;-2.19;100.00;101705.78;6278459;22;20014;-82
2023/12/07 01:20:32;;;;;;;27.33;18.08;;;;;;;-2.15;100.00;101723.91;6278832;22;20018;-81
2023/12/07 01:22:57;;;;;;;29.60;16.58;;;;;;;-2.16;100.00;101717.00;6305976;22;20015;-81
2023/12/07 01:25:24;;;;;;;29.48;16.90;;;;;;;-2.23;100.00;101712.19;6278896;22;20010;-81
2023/12/07 01:27:49;;;;;;;36.90;20.50;;;;;;;-2.19;100.00;101720.66;6278635;22;20004;-79
2023/12/07 01:30:14;;;;;;;29.95;16.98;;;;;;;-2.14;100.00;101718.56;6278607;22;20008;-80
2023/12/07 01:32:40;;;;;;;27.75;17.13;;;;;;;-2.25;100.00;101708.84;6278128;22;20094;-80
2023/12/07 01:35:06;;;;;;;29.75;17.30;;;;;;;-2.22;100.00;101706.00;6278654;22;20003;-80
2023/12/07 01:37:31;;;;;;;30.83;16.73;;;;;;;-2.25;100.00;101708.84;6278773;22;20052;-79
2023/12/07 01:39:56;;;;;;;32.28;18.15;;;;;;;-2.23;100.00;101704.34;6305925;22;20014;-80
2023/12/07 01:42:22;;;;;;;32.92;17.35;;;;;;;-2.26;100.00;101708.97;6305831;22;20385;-80
2023/12/07 01:44:47;;;;;;;42.08;19.17;;;;;;;-2.33;100.00;101707.72;6278399;22;20003;-80
2023/12/07 01:47:13;;;;;;;34.78;18.15;;;;;;;-2.33;100.00;101719.03;6278655;22;20089;-79
2023/12/07 01:49:40;;;;;;;33.80;19.65;;;;;;;-2.34;100.00;101719.97;6305988;22;20416;-80
2023/12/07 01:52:06;;;;;;;30.13;19.88;;;;;;;-2.33;100.00;101707.72;6278673;22;20010;-81
2023/12/07 01:54:32;;;;;;;32.17;18.85;;;;;;;-2.25;100.00;101721.13;6278567;22;20003;-81
2023/12/07 01:56:57;;;;;;;38.00;19.70;;;;;;;-2.26;100.00;101715.03;6278795;22;20416;-81
2023/12/07 01:59:24;;;;;;;35.75;21.23;;;;;;;-2.23;100.00;101720.06;6306224;22;20074;-81
2023/12/07 02:01:50;;;;;;;34.58;19.85;;;;;;;-2.19;100.00;101721.50;6278603;22;20011;-81
2023/12/07 02:04:16;;;;;;;32.08;18.17;;;;;;;-2.23;100.00;101711.38;6278454;22;20003;-80
2023/12/07 02:06:42;;;;;;;35.10;19.77;;;;;;;-2.22;100.00;101711.25;6278658;22;20011;-80
2023/12/07 02:09:08;;;;;;;37.08;19.33;;;;;;;-2.25;100.00;101721.13;6278426;22;20010;-79
2023/12/07 02:11:34;;;;;;;30.10;17.35;;;;;;;-2.33;100.00;101719.03;6305901;22;20366;-79
2023/12/07 02:13:59;;;;;;;36.05;20.38;;;;;;;-2.38;100.00;101709.81;6278350;22;20037;-79
2023/12/07 02:16:34;;;;;;;38.10;20.02;;;;;;;-2.37;100.00;101711.50;6278506;22;20612;-79
2023/12/07 02:19:11;;;;;;;33.80;18.67;;;;;;;-2.35;100.00;101720.91;6305762;22;20056;-78
2023/12/07 02:21:52;;;;;;;29.88;17.40;;;;;;;-2.41;100.00;101721.34;6305973;22;20010;-79
2023/12/07 02:24:22;;;;;;;30.40;16.80;;;;;;;-2.31;100.00;101730.25;6305510;22;20455;-79
2023/12/07 02:26:48;;;;;;;37.55;21.00;;;;;;;-2.25;100.00;101719.34;6305723;22;20011;-78
2023/12/07 02:29:13;;;;;;;66.97;19.33;;;;;;;-2.10;100.00;101721.78;6305904;22;20027;-77
2023/12/07 02:31:39;;;;;;;109.10;27.02;;;;;;;-1.79;100.00;101728.25;6278384;22;20459;-78
2023/12/07 02:34:04;;;;;;;184.77;39.50;;;;;;;-1.58;100.00;101727.53;6305927;22;20440;-78
2023/12/07 02:36:34;;;;;;;209.63;37.28;;;;;;;-1.51;100.00;101717.41;6278228;22;20018;-77
2023/12/07 02:39:03;;;;;;;276.85;47.38;;;;;;;-1.43;100.00;101735.22;6278491;22;20015;-78
2023/12/07 02:41:31;;;;;;;184.00;39.88;;;;;;;-1.42;100.00;101726.41;6305773;22;20003;-77
2023/12/07 02:43:57;;;;;;;143.75;31.88;;;;;;;-1.41;100.00;101720.19;6305748;22;20284;-77
2023/12/07 02:46:23;;;;;;;173.48;34.42;;;;;;;-1.45;100.00;101714.31;6278324;22;20505;-77
2023/12/07 02:48:49;;;;;;;185.65;34.40;;;;;;;-1.45;100.00;101716.94;6305672;22;20004;-76
2023/12/07 02:51:14;;;;;;;181.60;32.60;;;;;;;-1.47;100.00;101723.25;6305629;22;20053;-78
2023/12/07 02:53:39;;;;;;;156.90;30.95;;;;;;;-1.52;100.00;101725.38;6305723;22;20009;-77
2023/12/07 02:56:05;;;;;;;221.73;47.95;;;;;;;-1.57;100.00;101723.94;6278301;22;20034;-77
2023/12/07 02:58:30;;;;;;;280.40;40.05;;;;;;;-1.62;100.00;101712.97;6278509;22;20027;-77
2023/12/07 03:00:56;;;;;;;189.02;36.58;;;;;;;-1.52;100.00;101715.72;6305727;22;20034;-77
2023/12/07 03:03:22;;;;;;;154.88;30.85;;;;;;;-1.58;100.00;101710.94;6278226;22;20408;-79
2023/12/07 03:05:47;;;;;;;188.10;40.28;;;;;;;-1.53;100.00;101718.47;6278291;22;20090;-79
2023/12/07 03:08:12;;;;;;;197.73;42.85;;;;;;;-1.50;100.00;101726.94;6278417;22;20007;-76
2023/12/07 03:10:37;;;;;;;187.18;37.20;;;;;;;-1.55;100.00;101715.97;6305660;22;20003;-80
2023/12/07 03:13:03;;;;;;;304.77;39.30;;;;;;;-1.54;100.00;101714.19;6278454;22;19999;-80
2023/12/07 03:15:28;;;;;;;244.82;43.08;;;;;;;-1.50;100.00;101719.06;6278345;22;20007;-80
2023/12/07 03:17:53;;;;;;;175.80;33.35;;;;;;;-1.50;100.00;101723.50;6305972;22;20006;-80
2023/12/07 03:20:19;;;;;;;116.57;28.50;;;;;;;-1.56;100.00;101720.38;6305750;22;20042;-80
2023/12/07 03:22:44;;;;;;;133.10;30.38;;;;;;;-1.50;100.00;101726.09;6305496;22;20038;-81
2023/12/07 03:25:10;;;;;;;137.52;32.65;;;;;;;-1.52;100.00;101717.53;6305640;22;20014;-79
2023/12/07 03:27:35;;;;;;;223.73;38.95;;;;;;;-1.53;100.00;101732.41;6278933;22;20331;-78
2023/12/07 03:30:01;;;;;;;190.93;39.10;;;;;;;-1.56;100.00;101730.88;6278687;22;20003;-80
2023/12/07 03:32:26;;;;;;;121.45;27.65;;;;;;;-1.57;100.00;101728.34;6278748;22;20003;-79
2023/12/07 03:34:52;;;;;;;207.55;35.08;;;;;;;-1.52;100.00;101726.22;6305596;22;20033;-79
2023/12/07 03:37:17;;;;;;;239.80;36.28;;;;;;;-1.56;100.00;101719.53;6278631;22;20007;-80
2023/12/07 03:39:43;;;;;;;262.90;44.60;;;;;;;-1.53;100.00;101726.34;6278815;22;20455;-79
2023/12/07 03:42:08;;;;;;;307.27;40.47;;;;;;;-1.57;100.00;101730.97;6278401;22;20483;-77
2023/12/07 03:44:34;;;;;;;219.77;37.60;;;;;;;-1.53;100.00;101735.03;6278689;22;20007;-79
2023/12/07 03:46:59;;;;;;;170.00;30.95;;;;;;;-1.53;100.00;101735.03;6305723;22;20086;-79
2023/12/07 03:49:25;;;;;;;196.27;37.53;;;;;;;-1.51;100.00;101733.13;6277986;22;20010;-78
2023/12/07 03:51:50;;;;;;;228.48;44.65;;;;;;;-1.47;100.00;101744.22;6277963;22;20007;-79
2023/12/07 03:54:15;;;;;;;108.13;26.13;;;;;;;-1.58;100.00;101731.94;6305525;22;20007;-78
2023/12/07 03:56:41;;;;;;;147.27;27.38;;;;;;;-1.46;100.00;101751.16;6305395;22;20061;-78
2023/12/07 03:59:06;;;;;;;271.17;42.03;;;;;;;-1.52;100.00;101751.63;6305445;22;20003;-79
2023/12/07 04:01:32;;;;;;;215.23;39.88;;;;;;;-1.56;100.00;101754.47;6305320;22;20057;-79
2023/12/07 04:03:57;;;;;;;283.83;43.50;;;;;;;-1.59;100.00;101746.81;6277896;22;20057;-78
2023/12/07 04:06:23;;;;;;;377.98;58.28;;;;;;;-1.61;100.00;101751.34;6305373;22;20007;-80
2023/12/07 04:08:49;;;;;;;246.38;35.95;;;;;;;-1.56;100.00;101746.59;6305344;22;19999;-78
2023/12/07 04:11:15;;;;;;;208.05;33.00;;;;;;;-1.59;100.00;101746.81;6278085;22;20014;-77
2023/12/07 04:13:41;;;;;;;313.50;39.83;;;;;;;-1.53;100.00;101755.19;6305325;22;20082;-77
2023/12/07 04:16:07;;;;;;;115.28;25.70;;;;;;;-1.51;100.00;101750.66;6305416;22;20439;-77
2023/12/07 04:18:33;;;;;;;267.20;35.08;;;;;;;-1.58;100.00;101745.03;6305193;22;20003;-77
2023/12/07 04:20:59;;;;;;;143.57;29.17;;;;;;;-1.51;100.00;101748.88;6305250;22;20007;-78
2023/12/07 04:23:25;;;;;;;303.42;45.65;;;;;;;-1.49;100.00;101757.47;6277864;22;20011;-78
2023/12/07 04:25:50;;;;;;;228.15;37.25;;;;;;;-1.52;100.00;101751.63;6277899;22;20085;-77
2023/12/07 04:28:16;;;;;;;109.85;23.05;;;;;;;-1.48;100.00;101750.44;6305207;22;20086;-77
2023/12/07 04:30:41;;;;;;;178.77;29.98;;;;;;;-1.45;100.00;101758.06;6277776;22;20004;-77
2023/12/07 04:33:06;;;;;;;170.05;39.22;;;;;;;-1.47;100.00;101752.09;6305096;22;20015;-77
2023/12/07 04:35:32;;;;;;;171.48;29.75;;;;;;;-1.42;100.00;101763.13;6277771;22;20411;-78
2023/12/07 04:37:57;;;;;;;236.50;34.55;;;;;;;-1.47;100.00;101762.59;6304954;22;20094;-77
2023/12/07 04:40:24;;;;;;;155.85;27.40;;;;;;;-1.48;100.00;101761.75;6277485;22;20031;-78
2023/12/07 04:42:49;;;;;;;166.90;29.23;;;;;;;-1.52;100.00;101752.44;6277557;22;20007;-79
2023/12/07 04:45:15;;;;;;;218.23;31.15;;;;;;;-1.43;100.00;101766.69;6277551;22;20015;-78
2023/12/07 04:47:41;;;;;;;275.20;38.45;;;;;;;-1.46;100.00;101767.72;6278811;22;20011;-79
2023/12/07 04:50:06;;;;;;;306.40;47.17;;;;;;;-1.53;100.00;101749.94;6279069;22;20015;-78
2023/12/07 04:52:32;;;;;;;235.18;42.03;;;;;;;-1.48;100.00;101753.06;6306194;22;20421;-78
2023/12/07 04:54:58;;;;;;;281.73;39.90;;;;;;;-1.53;100.00;101744.69;6306381;22;20003;-77
2023/12/07 04:57:23;;;;;;;154.52;28.15;;;;;;;-1.50;100.00;101749.72;6278953;22;20082;-78
2023/12/07 04:59:48;;;;;;;187.68;28.17;;;;;;;-1.52;100.00;101744.59;6279043;22;20065;-79
2023/12/07 05:02:14;;;;;;;313.17;43.90;;;;;;;-1.51;100.00;101748.03;6278860;22;20030;-77
2023/12/07 05:04:40;;;;;;;307.73;40.42;;;;;;;-1.56;100.00;101745.75;6278915;22;20014;-78
2023/12/07 05:07:05;;;;;;;226.70;32.92;;;;;;;-1.53;100.00;101748.16;6306122;22;20031;-78
2023/12/07 05:09:30;;;;;;;188.40;31.08;;;;;;;-1.54;100.00;101737.78;6306160;22;20053;-78
2023/12/07 05:11:56;;;;;;;319.88;37.97;;;;;;;-1.47;100.00;101736.38;6278698;22;20365;-77
2023/12/07 05:14:22;;;;;;;312.00;36.30;;;;;;;-1.52;100.00;101731.47;6278916;22;20013;-79
2023/12/07 05:16:52;;;;;;;315.38;43.38;;;;;;;-1.55;100.00;101729.06;6278571;22;20014;-77
2023/12/07 05:19:19;;;;;;;354.83;44.40;;;;;;;-1.51;100.00;101734.94;6306084;22;20003;-79
2023/12/07 05:21:44;;;;;;;182.88;29.75;;;;;;;-1.52;100.00;101725.38;6278823;22;20007;-79
2023/12/07 05:24:09;;;;;;;248.93;31.73;;;;;;;-1.49;100.00;101730.41;6278612;22;20053;-77
2023/12/07 05:26:35;;;;;;;166.75;22.25;;;;;;;-1.49;100.00;101735.66;6278800;22;20011;-79
2023/12/07 05:29:02;;;;;;;133.93;22.00;;;;;;;-1.48;100.00;101726.84;6278898;22;20052;-79
2023/12/07 05:31:27;;;;;;;208.43;28.90;;;;;;;-1.48;100.00;101721.59;6279041;22;20050;-79
2023/12/07 05:33:52;;;;;;;116.38;20.52;;;;;;;-1.45;100.00;101723.97;6278983;22;20007;-79
2023/12/07 05:36:18;;;;;;;215.43;25.27;;;;;;;-1.45;100.00;101729.22;6305909;22;20060;-78
2023/12/07 05:38:43;;;;;;;124.70;18.33;;;;;;;-1.43;100.00;101724.72;6278537;22;20045;-78
2023/12/07 05:41:09;;;;;;;171.75;20.50;;;;;;;-1.46;100.00;101709.19;6278558;22;20014;-79
2023/12/07 05:43:34;;;;;;;178.45;22.17;;;;;;;-1.49;100.00;101710.25;6306175;22;20053;-78
2023/12/07 05:46:00;;;;;;;190.63;24.75;;;;;;;-1.42;100.00;101715.91;6305983;22;20090;-76
2023/12/07 05:48:25;;;;;;;193.70;21.77;;;;;;;-1.45;100.00;101714.31;6306046;22;19999;-78
2023/12/07 05:50:51;;;;;;;205.05;32.42;;;;;;;-1.38;100.00;101728.66;6306054;22;20037;-78
2023/12/07 05:53:16;;;;;;;123.50;20.05;;;;;;;-1.41;100.00;101712.34;6306016;22;20019;-78
2023/12/07 05:55:41;;;;;;;242.52;29.30;;;;;;;-1.38;100.00;101712.94;6306239;22;20473;-78
2023/12/07 05:58:07;;;;;;;196.35;26.73;;;;;;;-1.35;100.00;101722.34;6305658;22;20450;-78
2023/12/07 06:00:32;;;;;;;152.38;21.90;;;;;;;-1.42;100.00;101700.16;6306162;22;20003;-78
2023/12/07 06:02:57;;;;;;;192.65;21.50;;;;;;;-1.34;100.00;101716.16;6305804;22;20003;-78
2023/12/07 06:05:22;;;;;;;229.02;26.85;;;;;;;-1.34;100.00;101713.53;6278712;22;20007;-78
2023/12/07 06:07:48;;;;;;;271.38;27.65;;;;;;;-1.30;100.00;101714.97;6305913;22;20086;-78
2023/12/07 06:10:13;;;;;;;134.60;18.27;;;;;;;-1.30;100.00;101712.34;6305890;22;20007;-78
2023/12/07 06:12:39;;;;;;;183.50;27.15;;;;;;;-1.31;100.00;101714.13;6278678;22;20003;-79
2023/12/07 06:15:06;;;;;;;187.38;22.92;;;;;;;-1.28;100.00;101723.56;6305924;22;20003;-78
2023/12/07 06:17:33;;;;;;;112.13;16.75;;;;;;;-1.31;100.00;101713.31;6306051;22;20043;-78
2023/12/07 06:19:59;;;;;;;234.80;26.42;;;;;;;-1.32;100.00;101711.63;6278543;22;20506;-78
2023/12/07 06:22:24;;;;;;;266.50;28.80;;;;;;;-1.31;100.00;101713.31;6278370;22;20011;-78
2023/12/07 06:24:50;;;;;;;134.15;19.50;;;;;;;-1.26;100.00;101711.16;6305848;22;20003;-77
2023/12/07 06:27:15;;;;;;;182.02;20.52;;;;;;;-1.24;100.00;101722.38;6278501;22;20444;-79
2023/12/07 06:29:40;;;;;;;160.82;21.13;;;;;;;-1.29;100.00;101714.84;6305927;22;20037;-79
2023/12/07 06:32:06;;;;;;;297.60;27.20;;;;;;;-1.20;100.00;101733.47;6278490;22;20038;-78
2023/12/07 06:34:31;;;;;;;240.75;26.40;;;;;;;-1.21;100.00;101722.13;6305954;22;20006;-78
2023/12/07 06:36:57;;;;;;;311.00;30.33;;;;;;;-1.20;100.00;101723.81;6306049;22;20480;-78
2023/12/07 06:39:22;;;;;;;156.48;20.17;;;;;;;-1.22;100.00;101707.34;6278433;22;20026;-79
2023/12/07 06:41:47;;;;;;;200.63;21.05;;;;;;;-1.22;100.00;101702.09;6278379;22;20099;-79
2023/12/07 06:44:13;;;;;;;228.23;21.60;;;;;;;-1.21;100.00;101698.53;6305500;22;20053;-78
2023/12/07 06:46:39;;;;;;;136.00;17.45;;;;;;;-1.21;100.00;101692.44;6278621;22;20007;-79
2023/12/07 06:49:04;;;;;;;237.43;23.02;;;;;;;-1.15;100.00;101694.63;6278498;22;20361;-78
2023/12/07 06:51:30;;;;;;;203.40;22.58;;;;;;;-1.09;100.00;101702.03;6305868;22;20340;-79
2023/12/07 06:53:55;;;;;;;154.05;18.17;;;;;;;-1.04;100.00;101700.72;6278436;22;20420;-79
2023/12/07 06:56:20;;;;;;;173.07;19.50;;;;;;;-1.07;100.00;101695.69;6305655;22;20011;-78
2023/12/07 06:58:46;;;;;;;143.13;16.77;;;;;;;-1.04;100.00;101684.13;6305744;22;20007;-78
2023/12/07 07:01:12;;;;;;;121.50;15.80;;;;;;;-1.06;100.00;101681.63;6278303;22;20374;-81
2023/12/07 07:03:38;;;;;;;140.65;18.00;;;;;;;-1.05;100.00;101688.53;6306110;22;20046;-79
2023/12/07 07:06:03;;;;;;;215.15;21.15;;;;;;;-1.04;100.00;101684.97;6305930;22;20290;-80
2023/12/07 07:08:29;;;;;;;269.88;25.27;;;;;;;-1.00;100.00;101696.06;6305650;22;20313;-78
2023/12/07 07:10:55;;;;;;;167.13;19.40;;;;;;;-1.00;100.00;101693.44;6304994;22;20103;-79
2023/12/07 07:13:21;;;;;;;190.88;19.23;;;;;;;-1.04;100.00;101686.75;6278522;22;20022;-79
2023/12/07 07:15:47;;;;;;;170.63;21.23;;;;;;;-0.99;100.00;101692.47;6305644;22;20341;-80
2023/12/07 07:18:13;;;;;;;212.50;26.95;;;;;;;-0.99;100.00;101701.19;6305642;22;20007;-80
2023/12/07 07:20:39;;;;;;;162.60;21.80;;;;;;;-1.00;100.00;101698.69;6305669;22;20007;-82
2023/12/07 07:23:04;;;;;;;131.38;15.43;;;;;;;-1.02;100.00;101697.97;6278140;22;20007;-80
2023/12/07 07:25:30;;;;;;;149.57;20.63;;;;;;;-0.97;100.00;101708.94;6305679;22;20025;-81
2023/12/07 07:27:55;;;;;;;128.95;21.17;;;;;;;-1.02;100.00;101718.97;6278179;22;20007;-79
2023/12/07 07:30:21;;;;;;;144.45;22.25;;;;;;;-1.01;100.00;101715.38;6305561;22;20048;-81
2023/12/07 07:32:47;;;;;;;104.70;15.55;;;;;;;-0.96;100.00;101724.56;6305748;22;20014;-78
2023/12/07 07:35:12;;;;;;;154.88;20.52;;;;;;;-0.94;100.00;101720.03;6278051;22;20003;-78
2023/12/07 07:37:38;;;;;;;138.85;17.00;;;;;;;-1.00;100.00;101715.25;6278220;22;20015;-83
2023/12/07 07:40:06;;;;;;;150.77;22.02;;;;;;;-0.94;100.00;101721.81;6278122;22;20501;-80
2023/12/07 07:42:32;;;;;;;96.32;16.65;;;;;;;-0.91;100.00;101718.97;6277998;22;20062;-81
2023/12/07 07:44:58;;;;;;;186.20;23.50;;;;;;;-0.88;100.00;101715.25;6278048;22;20035;-83
2023/12/07 07:47:23;;;;;;;109.45;16.95;;;;;;;-0.86;100.00;101723.88;6305610;22;20010;-81
2023/12/07 07:49:49;;;;;;;222.70;30.70;;;;;;;-0.90;100.00;101706.69;6305317;22;20007;-81
2023/12/07 07:52:14;;;;;;;198.07;28.25;;;;;;;-0.86;100.00;101714.22;6278155;22;20003;-81
2023/12/07 07:54:40;;;;;;;144.77;20.40;;;;;;;-0.83;100.00;101719.22;6277981;22;20110;-81
2023/12/07 07:57:05;;;;;;;160.93;25.70;;;;;;;-0.79;100.00;101709.31;6277932;22;20003;-82
2023/12/07 07:59:31;;;;;;;155.55;22.20;;;;;;;-0.74;100.00;101712.41;6305670;22;20007;-80
2023/12/07 08:01:57;;;;;;;95.82;18.05;;;;;;;-0.64;100.00;101714.19;6278188;22;20014;-81
2023/12/07 08:04:22;;;;;;;166.32;24.50;;;;;;;-0.67;100.00;101705.72;6305332;22;20480;-84
2023/12/07 08:06:48;;;;;;;167.77;26.38;;;;;;;-0.65;100.00;101709.91;6305318;22;20014;-83
2023/12/07 08:09:14;;;;;;;78.18;17.20;;;;;;;-0.64;100.00;101697.59;6278160;22;20030;-83
2023/12/07 08:11:42;;;;;;;135.40;24.05;;;;;;;-0.58;100.00;101696.28;6305538;22;20448;-82
2023/12/07 08:14:08;;;;;;;160.55;23.88;;;;;;;-0.55;100.00;101702.16;6305358;22;20015;-84
2023/12/07 08:16:34;;;;;;;230.23;29.08;;;;;;;-0.64;100.00;101695.81;6305336;22;20015;-86
2023/12/07 08:19:02;;;;;;;177.63;23.10;;;;;;;-0.54;100.00;101700.38;6277603;22;20012;-83
2023/12/07 08:21:29;;;;;;;167.43;23.90;;;;;;;-0.57;100.00;101690.13;6277687;22;20004;-84
2023/12/07 08:23:54;;;;;;;174.25;28.02;;;;;;;-0.52;100.00;101701.91;6305113;22;20016;-84
2023/12/07 08:26:20;;;;;;;145.18;22.27;;;;;;;-0.47;100.00;101707.63;6277897;22;20026;-83
2023/12/07 08:28:46;;;;;;;161.48;27.63;;;;;;;-0.47;100.00;101710.25;6305249;22;20011;-82
2023/12/07 08:31:11;;;;;;;154.10;26.35;;;;;;;-0.44;100.00;101709.19;6277800;22;19999;-81
2023/12/07 08:33:39;;;;;;;155.05;27.20;;;;;;;-0.41;100.00;101704.53;6278008;22;20019;-83
2023/12/07 08:36:05;;;;;;;186.77;29.90;;;;;;;-0.42;100.00;101708.09;6305915;22;20000;-83
2023/12/07 08:38:31;;;;;;;104.57;23.70;;;;;;;-0.38;100.00;101714.78;6305841;22;20350;-83
2023/12/07 08:40:57;;;;;;;114.57;24.00;;;;;;;-0.39;100.00;101709.66;6278511;22;20420;-83
2023/12/07 08:43:24;;;;;;;100.55;22.02;;;;;;;-0.34;100.00;101718.00;6278323;22;20027;-83
2023/12/07 08:45:50;;;;;;;90.97;23.83;;;;;;;-0.38;100.00;101719.19;6278324;22;20442;-81
2023/12/07 08:48:16;;;;;;;98.88;25.30;;;;;;;-0.40;100.00;101707.97;6278287;22;20014;-82
2023/12/07 08:50:41;;;;;;;105.80;31.05;;;;;;;-0.50;100.00;101697.38;6305702;22;20363;-82
2023/12/07 08:53:06;;;;;;;61.65;17.23;;;;;;;-0.40;100.00;101714.06;6278245;22;20015;-82
2023/12/07 08:55:32;;;;;;;83.68;23.30;;;;;;;-0.43;100.00;101724.00;6278263;22;20008;-82
2023/12/07 08:57:59;;;;;;;88.40;20.83;;;;;;;-0.40;100.00;101721.94;6278385;22;20034;-82
2023/12/07 09:00:25;;;;;;;63.88;16.33;;;;;;;-0.38;100.00;101709.53;6278594;22;20007;-82
2023/12/07 09:02:51;;;;;;;104.55;27.65;;;;;;;-0.38;100.00;101708.69;6278005;22;20090;-82
2023/12/07 09:05:17;;;;;;;72.95;17.52;;;;;;;-0.26;100.00;101714.78;6305763;22;19999;-82
2023/12/07 09:07:43;;;;;;;91.30;23.42;;;;;;;-0.26;100.00;101714.78;6278262;22;20015;-84
2023/12/07 09:10:17;;;;;;;59.97;15.95;;;;;;;-0.28;100.00;101701.78;6279182;22;20072;-83
2023/12/07 09:12:42;;;;;;;67.40;19.05;;;;;;;-0.40;100.00;101665.94;6278850;22;20038;-85
2023/12/07 09:15:09;;;;;;;81.10;18.90;;;;;;;-0.14;100.00;101698.03;6278141;22;20015;-84
2023/12/07 09:17:35;;;;;;;102.07;22.70;;;;;;;-0.17;100.00;101703.53;6278307;22;20007;-83
2023/12/07 09:20:01;;;;;;;86.72;19.38;;;;;;;-0.19;100.00;101700.19;6277822;22;20056;-83
2023/12/07 09:22:26;;;;;;;105.65;23.17;;;;;;;-0.04;100.00;101706.81;6277869;22;20106;-83
2023/12/07 09:24:51;;;;;;;95.57;23.08;;;;;;;-0.06;100.00;101700.84;6277832;22;20004;-83
2023/12/07 09:27:17;;;;;;;133.35;27.58;;;;;;;-0.08;100.00;101700.97;6277938;22;20346;-83
2023/12/07 09:29:42;;;;;;;89.10;20.90;;;;;;;-0.05;100.00;101699.91;6278326;22;20007;-82
2023/12/07 09:32:07;;;;;;;116.55;25.30;;;;;;;-0.05;100.00;101686.75;6305187;22;20451;-83
2023/12/07 09:34:33;;;;;;;132.68;30.80;;;;;;;-0.27;100.00;101650.88;6306547;22;20018;-83
2023/12/07 09:37:06;;;;;;;137.90;36.80;;;;;;;-0.04;100.00;101685.78;6306927;22;20124;-82
2023/12/07 09:39:32;;;;;;;96.53;22.17;;;;;;;0.08;100.00;101697.97;6279437;22;20003;-82
2023/12/07 09:41:57;;;;;;;99.05;23.02;;;;;;;0.05;100.00;101690.31;6279160;22;20058;-82
2023/12/07 09:44:22;;;;;;;82.40;21.38;;;;;;;-0.01;100.00;101680.28;6279469;22;20039;-84
2023/12/07 09:46:48;;;;;;;99.15;24.42;;;;;;;0.12;100.00;101677.50;6279356;22;20086;-83
2023/12/07 09:49:13;;;;;;;109.40;27.95;;;;;;;0.10;100.00;101685.53;6306858;22;20080;-84
2023/12/07 09:51:42;;;;;;;73.63;18.67;;;;;;;0.16;100.00;101684.19;6279515;22;20011;-84
2023/12/07 09:54:08;;;;;;;110.85;22.95;;;;;;;0.22;100.00;101665.25;6279197;22;20448;-84
2023/12/07 09:56:33;;;;;;;86.25;21.08;;;;;;;0.29;100.00;101656.75;6306756;22;20007;-84
2023/12/07 09:58:58;;;;;;;70.60;19.80;;;;;;;0.41;100.00;101628.59;6279172;22;20436;-84
2023/12/07 10:01:31;;;;;;;101.05;21.50;;;;;;;0.67;100.00;101644.81;6279418;22;20420;-84
2023/12/07 10:04:23;;;;;;;115.45;31.80;;;;;;;0.66;100.00;101643.16;6306825;22;20419;-83
2023/12/07 10:06:50;;;;;;;78.50;20.98;;;;;;;0.74;100.00;101642.50;6279068;22;20011;-83
2023/12/07 10:09:16;;;;;;;85.97;22.10;;;;;;;0.79;100.00;101633.22;6279700;22;20007;-84
2023/12/07 10:11:41;;;;;;;88.68;22.20;;;;;;;0.80;100.00;101624.38;6306225;22;20030;-85
2023/12/07 10:14:07;;;;;;;90.18;23.58;;;;;;;0.84;100.00;101617.03;6277593;22;20766;-85
2023/12/07 10:16:35;;;;;;;89.38;23.73;;;;;;;0.93;100.00;101603.94;6278629;22;20367;-84
2023/12/07 10:19:21;;;;;;;80.97;20.38;;;;;;;1.19;100.00;101606.13;6278691;22;20391;-84
2023/12/07 10:21:47;;;;;;;76.97;21.67;;;;;;;1.37;100.00;101603.66;6306358;22;20000;-85
2023/12/07 10:24:13;;;;;;;78.63;20.52;;;;;;;1.48;100.00;101603.56;6278923;22;20014;-86
2023/12/07 10:26:41;;;;;;;69.70;19.73;;;;;;;1.71;100.00;101604.94;6278787;22;20014;-83
2023/12/07 10:29:06;;;;;;;81.18;22.20;;;;;;;1.84;100.00;101583.59;6278901;22;20033;-86
2023/12/07 10:31:32;;;;;;;67.85;21.63;;;;;;;1.80;100.00;101592.75;6305970;22;19999;-82
2023/12/07 10:34:06;;;;;;;63.40;19.67;;;;;;;1.58;100.00;101583.31;6306764;22;20314;-84
2023/12/07 10:36:32;;;;;;;54.03;19.08;;;;;;;1.65;100.00;101581.78;6306694;22;20290;-83
2023/12/07 10:38:58;;;;;;;59.05;19.75;;;;;;;1.61;100.00;101569.84;6306560;22;19999;-83
2023/12/07 10:41:24;;;;;;;53.92;16.58;;;;;;;1.79;100.00;101580.56;6306351;22;20003;-83
2023/12/07 10:43:59;;;;;;;60.03;18.55;;;;;;;1.92;100.00;101583.72;6278547;22;20003;-81
2023/12/07 10:46:24;;;;;;;54.58;18.48;;;;;;;2.02;100.00;101567.88;6278957;22;20331;-82
2023/12/07 10:48:56;;;;;;;65.28;20.48;;;;;;;2.35;100.00;101571.88;6278623;22;20090;-82
2023/12/07 10:51:38;;;;;;;48.53;18.77;;;;;;;2.58;100.00;101559.16;6305927;22;20003;-83